METAR Data

Data at: 0714 UTC 28 Sep 2022

METAR for:KACK (Nantucket Mem Arpt, MA, US)
Text:KACK 280653Z 29007KT 10SM CLR 16/11 A2997 RMK AO2 SLP148 T01610106
Temperature: 16.1°C ( 61°F)
Dewpoint: 10.6°C ( 51°F) [RH = 70%]
Pressure (altimeter):29.97 inches Hg (1015.0 mb) [Sea level pressure: 1014.8 mb]
Winds:from the WNW (290 degrees) at 8 MPH (7 knots; 3.6 m/s)
Visibility:10 or more sm (16+ km)
Ceiling:at least 12,000 feet AGL
Clouds:sky clear below 12,000 feet AGL